sensor_id;sensor_type;location;lat;lon;timestamp;P1;durP1;ratioP1;P2;durP2;ratioP2
64875;SDS011;51369;49.862;9.908;2023-10-08T00:01:14;8.40;;;4.03;;
64875;SDS011;51369;49.862;9.908;2023-10-08T00:03:44;12.25;;;4.28;;
64875;SDS011;51369;49.862;9.908;2023-10-08T00:06:17;8.95;;;4.60;;
64875;SDS011;51369;49.862;9.908;2023-10-08T00:08:47;9.13;;;3.90;;
64875;SDS011;51369;49.862;9.908;2023-10-08T00:11:14;13.77;;;4.95;;
64875;SDS011;51369;49.862;9.908;2023-10-08T00:13:41;8.05;;;4.22;;
64875;SDS011;51369;49.862;9.908;2023-10-08T00:16:08;9.23;;;5.30;;
64875;SDS011;51369;49.862;9.908;2023-10-08T00:18:42;9.25;;;4.03;;
64875;SDS011;51369;49.862;9.908;2023-10-08T00:23:39;8.50;;;4.45;;
64875;SDS011;51369;49.862;9.908;2023-10-08T00:26:10;12.63;;;4.57;;
64875;SDS011;51369;49.862;9.908;2023-10-08T00:28:35;11.50;;;5.35;;
64875;SDS011;51369;49.862;9.908;2023-10-08T00:31:01;7.93;;;4.07;;
64875;SDS011;51369;49.862;9.908;2023-10-08T00:33:40;9.18;;;4.05;;
64875;SDS011;51369;49.862;9.908;2023-10-08T00:36:09;10.07;;;4.20;;
64875;SDS011;51369;49.862;9.908;2023-10-08T00:38:44;7.95;;;4.32;;
64875;SDS011;51369;49.862;9.908;2023-10-08T00:41:14;10.95;;;4.72;;
64875;SDS011;51369;49.862;9.908;2023-10-08T00:43:40;8.48;;;4.05;;
64875;SDS011;51369;49.862;9.908;2023-10-08T00:46:06;9.13;;;4.18;;
64875;SDS011;51369;49.862;9.908;2023-10-08T00:48:46;12.90;;;4.20;;
64875;SDS011;51369;49.862;9.908;2023-10-08T00:51:13;8.70;;;4.25;;
64875;SDS011;51369;49.862;9.908;2023-10-08T00:54:03;7.68;;;4.13;;
64875;SDS011;51369;49.862;9.908;2023-10-08T00:56:33;9.20;;;4.20;;
64875;SDS011;51369;49.862;9.908;2023-10-08T00:59:17;8.80;;;4.47;;
64875;SDS011;51369;49.862;9.908;2023-10-08T01:01:47;10.13;;;3.92;;
64875;SDS011;51369;49.862;9.908;2023-10-08T01:04:20;7.82;;;3.55;;
64875;SDS011;51369;49.862;9.908;2023-10-08T01:06:59;11.00;;;4.38;;
64875;SDS011;51369;49.862;9.908;2023-10-08T01:09:35;11.52;;;4.50;;
64875;SDS011;51369;49.862;9.908;2023-10-08T01:14:36;9.05;;;3.50;;
64875;SDS011;51369;49.862;9.908;2023-10-08T01:17:02;10.75;;;4.47;;
64875;SDS011;51369;49.862;9.908;2023-10-08T01:19:30;9.48;;;4.40;;
64875;SDS011;51369;49.862;9.908;2023-10-08T01:22:04;8.73;;;4.25;;
64875;SDS011;51369;49.862;9.908;2023-10-08T01:24:32;9.07;;;3.83;;
64875;SDS011;51369;49.862;9.908;2023-10-08T01:26:59;9.32;;;4.18;;
64875;SDS011;51369;49.862;9.908;2023-10-08T01:29:25;9.98;;;4.22;;
64875;SDS011;51369;49.862;9.908;2023-10-08T01:31:53;11.95;;;4.72;;
64875;SDS011;51369;49.862;9.908;2023-10-08T01:34:20;14.25;;;3.90;;
64875;SDS011;51369;49.862;9.908;2023-10-08T01:36:52;7.80;;;4.38;;
64875;SDS011;51369;49.862;9.908;2023-10-08T01:39:17;11.75;;;4.53;;
64875;SDS011;51369;49.862;9.908;2023-10-08T01:41:45;10.18;;;5.00;;
64875;SDS011;51369;49.862;9.908;2023-10-08T01:44:16;8.35;;;4.50;;
64875;SDS011;51369;49.862;9.908;2023-10-08T01:46:42;12.82;;;4.60;;
64875;SDS011;51369;49.862;9.908;2023-10-08T01:49:08;9.35;;;4.90;;
64875;SDS011;51369;49.862;9.908;2023-10-08T01:51:39;9.48;;;4.43;;
64875;SDS011;51369;49.862;9.908;2023-10-08T01:54:09;16.23;;;4.63;;
64875;SDS011;51369;49.862;9.908;2023-10-08T01:56:39;8.38;;;4.55;;
64875;SDS011;51369;49.862;9.908;2023-10-08T01:59:07;11.80;;;4.72;;
64875;SDS011;51369;49.862;9.908;2023-10-08T02:01:38;11.57;;;4.72;;
64875;SDS011;51369;49.862;9.908;2023-10-08T02:04:05;8.50;;;3.97;;
64875;SDS011;51369;49.862;9.908;2023-10-08T02:06:33;8.10;;;4.03;;
64875;SDS011;51369;49.862;9.908;2023-10-08T02:08:59;8.52;;;5.00;;
64875;SDS011;51369;49.862;9.908;2023-10-08T02:11:31;18.95;;;3.95;;
64875;SDS011;51369;49.862;9.908;2023-10-08T02:13:57;9.65;;;4.50;;
64875;SDS011;51369;49.862;9.908;2023-10-08T02:16:23;12.00;;;4.18;;
64875;SDS011;51369;49.862;9.908;2023-10-08T02:18:49;10.82;;;3.90;;
64875;SDS011;51369;49.862;9.908;2023-10-08T02:21:16;10.07;;;4.28;;
64875;SDS011;51369;49.862;9.908;2023-10-08T02:23:41;8.18;;;4.57;;
64875;SDS011;51369;49.862;9.908;2023-10-08T02:26:08;10.32;;;3.50;;
64875;SDS011;51369;49.862;9.908;2023-10-08T02:28:35;9.60;;;4.38;;
64875;SDS011;51369;49.862;9.908;2023-10-08T02:31:02;9.25;;;4.88;;
64875;SDS011;51369;49.862;9.908;2023-10-08T02:33:28;14.10;;;4.38;;
64875;SDS011;51369;49.862;9.908;2023-10-08T02:35:55;13.93;;;4.43;;
64875;SDS011;51369;49.862;9.908;2023-10-08T02:38:21;10.45;;;4.25;;
64875;SDS011;51369;49.862;9.908;2023-10-08T02:40:49;11.95;;;4.30;;
64875;SDS011;51369;49.862;9.908;2023-10-08T02:43:16;9.38;;;4.57;;
64875;SDS011;51369;49.862;9.908;2023-10-08T02:45:43;8.02;;;4.72;;
64875;SDS011;51369;49.862;9.908;2023-10-08T02:48:14;12.52;;;4.63;;
64875;SDS011;51369;49.862;9.908;2023-10-08T02:50:40;11.65;;;4.47;;
64875;SDS011;51369;49.862;9.908;2023-10-08T02:53:07;13.40;;;5.65;;
64875;SDS011;51369;49.862;9.908;2023-10-08T02:55:39;10.00;;;4.63;;
64875;SDS011;51369;49.862;9.908;2023-10-08T02:58:15;14.88;;;4.80;;
64875;SDS011;51369;49.862;9.908;2023-10-08T03:00:41;10.68;;;4.70;;
64875;SDS011;51369;49.862;9.908;2023-10-08T03:03:08;9.55;;;4.35;;
64875;SDS011;51369;49.862;9.908;2023-10-08T03:08:13;12.63;;;5.00;;
64875;SDS011;51369;49.862;9.908;2023-10-08T03:10:44;9.65;;;4.47;;
64875;SDS011;51369;49.862;9.908;2023-10-08T03:13:09;9.68;;;4.13;;
64875;SDS011;51369;49.862;9.908;2023-10-08T03:15:38;13.05;;;5.20;;
64875;SDS011;51369;49.862;9.908;2023-10-08T03:18:11;11.45;;;4.65;;
64875;SDS011;51369;49.862;9.908;2023-10-08T03:20:42;14.60;;;4.13;;
64875;SDS011;51369;49.862;9.908;2023-10-08T03:23:09;12.40;;;4.53;;
64875;SDS011;51369;49.862;9.908;2023-10-08T03:25:51;8.43;;;4.40;;
64875;SDS011;51369;49.862;9.908;2023-10-08T03:28:42;10.40;;;3.92;;
64875;SDS011;51369;49.862;9.908;2023-10-08T03:31:08;10.77;;;5.18;;
64875;SDS011;51369;49.862;9.908;2023-10-08T03:33:41;13.40;;;4.28;;
64875;SDS011;51369;49.862;9.908;2023-10-08T03:36:08;10.00;;;4.38;;
64875;SDS011;51369;49.862;9.908;2023-10-08T03:38:46;9.40;;;4.53;;
64875;SDS011;51369;49.862;9.908;2023-10-08T03:41:21;8.07;;;4.32;;
64875;SDS011;51369;49.862;9.908;2023-10-08T03:43:52;9.65;;;4.63;;
64875;SDS011;51369;49.862;9.908;2023-10-08T03:46:30;11.45;;;4.68;;
64875;SDS011;51369;49.862;9.908;2023-10-08T03:48:56;8.98;;;4.22;;
64875;SDS011;51369;49.862;9.908;2023-10-08T03:51:22;13.90;;;4.60;;
64875;SDS011;51369;49.862;9.908;2023-10-08T03:53:52;11.98;;;4.75;;
64875;SDS011;51369;49.862;9.908;2023-10-08T03:56:32;10.20;;;4.40;;
64875;SDS011;51369;49.862;9.908;2023-10-08T03:59:01;11.60;;;4.43;;
64875;SDS011;51369;49.862;9.908;2023-10-08T04:01:38;8.80;;;4.13;;
64875;SDS011;51369;49.862;9.908;2023-10-08T04:04:05;11.50;;;4.50;;
64875;SDS011;51369;49.862;9.908;2023-10-08T04:06:31;7.93;;;4.30;;
64875;SDS011;51369;49.862;9.908;2023-10-08T04:08:57;8.68;;;4.43;;
64875;SDS011;51369;49.862;9.908;2023-10-08T04:11:38;9.18;;;4.63;;
64875;SDS011;51369;49.862;9.908;2023-10-08T04:14:20;8.52;;;4.68;;
64875;SDS011;51369;49.862;9.908;2023-10-08T04:16:46;7.60;;;4.53;;
64875;SDS011;51369;49.862;9.908;2023-10-08T04:19:12;10.80;;;4.10;;
64875;SDS011;51369;49.862;9.908;2023-10-08T04:21:40;10.00;;;4.28;;
64875;SDS011;51369;49.862;9.908;2023-10-08T04:24:07;12.45;;;4.63;;
64875;SDS011;51369;49.862;9.908;2023-10-08T04:26:33;9.75;;;4.05;;
64875;SDS011;51369;49.862;9.908;2023-10-08T04:29:00;9.35;;;4.38;;
64875;SDS011;51369;49.862;9.908;2023-10-08T04:31:32;9.30;;;4.22;;
64875;SDS011;51369;49.862;9.908;2023-10-08T04:34:05;12.85;;;4.93;;
64875;SDS011;51369;49.862;9.908;2023-10-08T04:39:19;13.18;;;6.22;;
64875;SDS011;51369;49.862;9.908;2023-10-08T04:41:51;9.65;;;4.32;;
64875;SDS011;51369;49.862;9.908;2023-10-08T04:44:19;10.13;;;4.35;;
64875;SDS011;51369;49.862;9.908;2023-10-08T04:46:47;14.82;;;5.10;;
64875;SDS011;51369;49.862;9.908;2023-10-08T04:49:17;10.80;;;4.80;;
64875;SDS011;51369;49.862;9.908;2023-10-08T04:51:56;12.45;;;6.68;;
64875;SDS011;51369;49.862;9.908;2023-10-08T04:54:26;10.07;;;5.07;;
64875;SDS011;51369;49.862;9.908;2023-10-08T04:56:56;11.63;;;4.50;;
64875;SDS011;51369;49.862;9.908;2023-10-08T04:59:23;11.63;;;5.47;;
64875;SDS011;51369;49.862;9.908;2023-10-08T05:01:57;10.48;;;4.13;;
64875;SDS011;51369;49.862;9.908;2023-10-08T05:04:44;9.80;;;4.53;;
64875;SDS011;51369;49.862;9.908;2023-10-08T05:07:22;8.73;;;4.93;;
64875;SDS011;51369;49.862;9.908;2023-10-08T05:09:51;10.00;;;4.82;;
64875;SDS011;51369;49.862;9.908;2023-10-08T05:12:29;8.60;;;4.32;;
64875;SDS011;51369;49.862;9.908;2023-10-08T05:14:57;9.35;;;4.47;;
64875;SDS011;51369;49.862;9.908;2023-10-08T05:17:45;12.05;;;4.60;;
64875;SDS011;51369;49.862;9.908;2023-10-08T05:20:14;11.35;;;5.93;;
64875;SDS011;51369;49.862;9.908;2023-10-08T05:22:59;11.43;;;4.82;;
64875;SDS011;51369;49.862;9.908;2023-10-08T05:25:45;9.80;;;5.05;;
64875;SDS011;51369;49.862;9.908;2023-10-08T05:28:24;11.60;;;5.30;;
64875;SDS011;51369;49.862;9.908;2023-10-08T05:30:50;13.50;;;5.10;;
64875;SDS011;51369;49.862;9.908;2023-10-08T05:33:19;12.52;;;6.15;;
64875;SDS011;51369;49.862;9.908;2023-10-08T05:35:45;13.43;;;5.47;;
64875;SDS011;51369;49.862;9.908;2023-10-08T05:38:15;12.70;;;5.32;;
64875;SDS011;51369;49.862;9.908;2023-10-08T05:40:47;11.95;;;5.28;;
64875;SDS011;51369;49.862;9.908;2023-10-08T05:48:51;12.90;;;5.68;;
64875;SDS011;51369;49.862;9.908;2023-10-08T05:51:32;11.90;;;5.30;;
64875;SDS011;51369;49.862;9.908;2023-10-08T05:54:23;15.90;;;5.68;;
64875;SDS011;51369;49.862;9.908;2023-10-08T05:57:10;13.38;;;6.28;;
64875;SDS011;51369;49.862;9.908;2023-10-08T05:59:38;15.57;;;6.97;;
64875;SDS011;51369;49.862;9.908;2023-10-08T06:02:30;9.27;;;4.40;;
64875;SDS011;51369;49.862;9.908;2023-10-08T06:10:21;9.15;;;5.60;;
64875;SDS011;51369;49.862;9.908;2023-10-08T06:13:11;13.70;;;4.88;;
64875;SDS011;51369;49.862;9.908;2023-10-08T06:16:08;13.30;;;5.50;;
64875;SDS011;51369;49.862;9.908;2023-10-08T06:18:34;11.32;;;5.43;;
64875;SDS011;51369;49.862;9.908;2023-10-08T06:21:00;8.70;;;5.28;;
64875;SDS011;51369;49.862;9.908;2023-10-08T06:23:39;10.25;;;5.32;;
64875;SDS011;51369;49.862;9.908;2023-10-08T06:26:07;9.88;;;5.20;;
64875;SDS011;51369;49.862;9.908;2023-10-08T06:28:36;14.32;;;5.30;;
64875;SDS011;51369;49.862;9.908;2023-10-08T06:31:06;10.60;;;4.65;;
64875;SDS011;51369;49.862;9.908;2023-10-08T06:33:36;9.80;;;5.03;;
64875;SDS011;51369;49.862;9.908;2023-10-08T06:36:04;11.75;;;5.05;;
64875;SDS011;51369;49.862;9.908;2023-10-08T06:38:44;9.18;;;4.68;;
64875;SDS011;51369;49.862;9.908;2023-10-08T06:41:14;9.80;;;5.22;;
64875;SDS011;51369;49.862;9.908;2023-10-08T06:43:46;9.55;;;5.18;;
64875;SDS011;51369;49.862;9.908;2023-10-08T06:46:28;11.50;;;5.18;;
64875;SDS011;51369;49.862;9.908;2023-10-08T06:48:58;11.50;;;5.25;;
64875;SDS011;51369;49.862;9.908;2023-10-08T06:51:23;9.48;;;4.82;;
64875;SDS011;51369;49.862;9.908;2023-10-08T06:53:51;16.23;;;6.18;;
64875;SDS011;51369;49.862;9.908;2023-10-08T06:56:17;11.70;;;5.22;;
64875;SDS011;51369;49.862;9.908;2023-10-08T06:58:45;10.90;;;4.82;;
64875;SDS011;51369;49.862;9.908;2023-10-08T07:01:14;14.65;;;5.40;;
64875;SDS011;51369;49.862;9.908;2023-10-08T07:03:59;10.95;;;4.93;;
64875;SDS011;51369;49.862;9.908;2023-10-08T07:06:31;11.88;;;5.03;;
64875;SDS011;51369;49.862;9.908;2023-10-08T07:09:02;9.68;;;5.22;;
64875;SDS011;51369;49.862;9.908;2023-10-08T07:11:33;11.63;;;4.77;;
64875;SDS011;51369;49.862;9.908;2023-10-08T07:14:02;13.02;;;5.28;;
64875;SDS011;51369;49.862;9.908;2023-10-08T07:16:29;8.52;;;4.57;;
64875;SDS011;51369;49.862;9.908;2023-10-08T07:18:58;11.10;;;5.05;;
64875;SDS011;51369;49.862;9.908;2023-10-08T07:21:29;9.27;;;4.53;;
64875;SDS011;51369;49.862;9.908;2023-10-08T07:24:03;8.90;;;5.82;;
64875;SDS011;51369;49.862;9.908;2023-10-08T07:26:29;13.13;;;4.95;;
64875;SDS011;51369;49.862;9.908;2023-10-08T07:29:02;11.88;;;5.20;;
64875;SDS011;51369;49.862;9.908;2023-10-08T07:31:33;13.60;;;5.28;;
64875;SDS011;51369;49.862;9.908;2023-10-08T07:34:01;16.60;;;5.03;;
64875;SDS011;51369;49.862;9.908;2023-10-08T07:36:46;11.57;;;5.28;;
64875;SDS011;51369;49.862;9.908;2023-10-08T07:39:14;13.88;;;5.47;;
64875;SDS011;51369;49.862;9.908;2023-10-08T07:42:03;11.45;;;5.50;;
64875;SDS011;51369;49.862;9.908;2023-10-08T07:44:33;10.75;;;5.70;;
64875;SDS011;51369;49.862;9.908;2023-10-08T07:47:03;9.70;;;4.93;;
64875;SDS011;51369;49.862;9.908;2023-10-08T07:49:30;13.15;;;5.25;;
64875;SDS011;51369;49.862;9.908;2023-10-08T07:51:59;8.55;;;4.88;;
64875;SDS011;51369;49.862;9.908;2023-10-08T07:54:25;10.23;;;4.60;;
64875;SDS011;51369;49.862;9.908;2023-10-08T07:56:54;12.40;;;5.63;;
64875;SDS011;51369;49.862;9.908;2023-10-08T07:59:46;14.88;;;5.35;;
64875;SDS011;51369;49.862;9.908;2023-10-08T08:02:12;10.98;;;5.15;;
64875;SDS011;51369;49.862;9.908;2023-10-08T08:04:42;11.45;;;5.22;;
64875;SDS011;51369;49.862;9.908;2023-10-08T08:07:16;12.65;;;5.38;;
64875;SDS011;51369;49.862;9.908;2023-10-08T08:09:42;12.35;;;4.97;;
64875;SDS011;51369;49.862;9.908;2023-10-08T08:12:15;12.45;;;5.22;;
64875;SDS011;51369;49.862;9.908;2023-10-08T08:14:41;10.02;;;5.03;;
64875;SDS011;51369;49.862;9.908;2023-10-08T08:17:07;7.47;;;4.82;;
64875;SDS011;51369;49.862;9.908;2023-10-08T08:19:42;9.80;;;4.70;;
64875;SDS011;51369;49.862;9.908;2023-10-08T08:22:10;11.85;;;4.75;;
64875;SDS011;51369;49.862;9.908;2023-10-08T08:24:53;12.35;;;5.20;;
64875;SDS011;51369;49.862;9.908;2023-10-08T08:27:31;9.75;;;4.25;;
64875;SDS011;51369;49.862;9.908;2023-10-08T08:30:00;11.57;;;5.13;;
64875;SDS011;51369;49.862;9.908;2023-10-08T08:32:41;14.43;;;5.53;;
64875;SDS011;51369;49.862;9.908;2023-10-08T08:35:13;12.00;;;4.65;;
64875;SDS011;51369;49.862;9.908;2023-10-08T08:37:41;11.30;;;5.05;;
64875;SDS011;51369;49.862;9.908;2023-10-08T08:40:07;13.32;;;5.00;;
64875;SDS011;51369;49.862;9.908;2023-10-08T08:42:44;10.55;;;5.28;;
64875;SDS011;51369;49.862;9.908;2023-10-08T08:45:12;10.23;;;4.53;;
64875;SDS011;51369;49.862;9.908;2023-10-08T08:47:40;12.95;;;5.43;;
64875;SDS011;51369;49.862;9.908;2023-10-08T08:50:06;14.57;;;5.70;;
64875;SDS011;51369;49.862;9.908;2023-10-08T08:52:36;14.00;;;4.68;;
64875;SDS011;51369;49.862;9.908;2023-10-08T08:55:05;12.90;;;5.60;;
64875;SDS011;51369;49.862;9.908;2023-10-08T08:57:39;11.68;;;5.40;;
64875;SDS011;51369;49.862;9.908;2023-10-08T09:00:06;14.10;;;5.15;;
64875;SDS011;51369;49.862;9.908;2023-10-08T09:02:39;12.88;;;5.97;;
64875;SDS011;51369;49.862;9.908;2023-10-08T09:05:05;9.85;;;4.95;;
64875;SDS011;51369;49.862;9.908;2023-10-08T09:07:52;11.85;;;4.97;;
64875;SDS011;51369;49.862;9.908;2023-10-08T09:10:22;15.77;;;5.28;;
64875;SDS011;51369;49.862;9.908;2023-10-08T09:12:54;11.90;;;4.63;;
64875;SDS011;51369;49.862;9.908;2023-10-08T09:15:24;16.67;;;5.20;;
64875;SDS011;51369;49.862;9.908;2023-10-08T09:17:54;9.93;;;5.03;;
64875;SDS011;51369;49.862;9.908;2023-10-08T09:20:21;8.80;;;4.78;;
64875;SDS011;51369;49.862;9.908;2023-10-08T09:23:04;20.90;;;5.35;;
64875;SDS011;51369;49.862;9.908;2023-10-08T09:25:37;10.93;;;5.13;;
64875;SDS011;51369;49.862;9.908;2023-10-08T09:28:06;8.98;;;5.07;;
64875;SDS011;51369;49.862;9.908;2023-10-08T09:30:36;7.80;;;4.75;;
64875;SDS011;51369;49.862;9.908;2023-10-08T09:33:06;11.82;;;4.93;;
64875;SDS011;51369;49.862;9.908;2023-10-08T09:35:33;8.98;;;5.20;;
64875;SDS011;51369;49.862;9.908;2023-10-08T09:38:02;9.45;;;4.95;;
64875;SDS011;51369;49.862;9.908;2023-10-08T09:40:29;13.98;;;5.45;;
64875;SDS011;51369;49.862;9.908;2023-10-08T09:42:55;14.00;;;5.10;;
64875;SDS011;51369;49.862;9.908;2023-10-08T09:45:21;11.05;;;5.00;;
64875;SDS011;51369;49.862;9.908;2023-10-08T09:47:54;9.23;;;5.38;;
64875;SDS011;51369;49.862;9.908;2023-10-08T09:50:21;13.32;;;5.22;;
64875;SDS011;51369;49.862;9.908;2023-10-08T09:58:02;9.57;;;4.88;;
64875;SDS011;51369;49.862;9.908;2023-10-08T10:00:29;11.05;;;4.53;;
64875;SDS011;51369;49.862;9.908;2023-10-08T10:02:59;11.45;;;5.35;;
64875;SDS011;51369;49.862;9.908;2023-10-08T10:05:32;11.55;;;4.95;;
64875;SDS011;51369;49.862;9.908;2023-10-08T10:10:31;8.98;;;5.18;;
64875;SDS011;51369;49.862;9.908;2023-10-08T10:13:03;10.88;;;5.35;;
64875;SDS011;51369;49.862;9.908;2023-10-08T10:15:31;9.30;;;4.82;;
64875;SDS011;51369;49.862;9.908;2023-10-08T10:20:57;12.40;;;5.75;;
64875;SDS011;51369;49.862;9.908;2023-10-08T10:26:05;10.35;;;5.45;;
64875;SDS011;51369;49.862;9.908;2023-10-08T10:31:40;11.68;;;4.80;;
64875;SDS011;51369;49.862;9.908;2023-10-08T10:34:11;13.40;;;4.68;;
64875;SDS011;51369;49.862;9.908;2023-10-08T10:36:44;9.93;;;4.57;;
64875;SDS011;51369;49.862;9.908;2023-10-08T10:39:17;11.95;;;4.97;;
64875;SDS011;51369;49.862;9.908;2023-10-08T10:41:52;17.83;;;5.53;;
64875;SDS011;51369;49.862;9.908;2023-10-08T10:44:32;12.57;;;5.43;;
64875;SDS011;51369;49.862;9.908;2023-10-08T10:47:01;10.35;;;5.32;;
64875;SDS011;51369;49.862;9.908;2023-10-08T10:49:43;14.48;;;5.25;;
64875;SDS011;51369;49.862;9.908;2023-10-08T10:52:24;9.35;;;5.13;;
64875;SDS011;51369;49.862;9.908;2023-10-08T10:55:04;10.35;;;5.32;;
64875;SDS011;51369;49.862;9.908;2023-10-08T10:57:53;17.30;;;5.35;;
64875;SDS011;51369;49.862;9.908;2023-10-08T11:00:29;9.10;;;5.45;;
64875;SDS011;51369;49.862;9.908;2023-10-08T11:02:59;16.77;;;5.65;;
64875;SDS011;51369;49.862;9.908;2023-10-08T11:05:31;12.98;;;6.03;;
64875;SDS011;51369;49.862;9.908;2023-10-08T11:08:02;12.55;;;5.53;;
64875;SDS011;51369;49.862;9.908;2023-10-08T11:10:34;18.98;;;5.50;;
64875;SDS011;51369;49.862;9.908;2023-10-08T11:13:03;10.13;;;5.43;;
64875;SDS011;51369;49.862;9.908;2023-10-08T11:15:29;11.35;;;5.63;;
64875;SDS011;51369;49.862;9.908;2023-10-08T11:18:09;16.83;;;5.68;;
64875;SDS011;51369;49.862;9.908;2023-10-08T11:20:35;10.85;;;5.68;;
64875;SDS011;51369;49.862;9.908;2023-10-08T11:23:08;18.38;;;5.90;;
64875;SDS011;51369;49.862;9.908;2023-10-08T11:25:55;12.07;;;5.40;;
64875;SDS011;51369;49.862;9.908;2023-10-08T11:28:31;15.48;;;5.70;;
64875;SDS011;51369;49.862;9.908;2023-10-08T11:31:04;15.90;;;6.43;;
64875;SDS011;51369;49.862;9.908;2023-10-08T11:33:43;17.85;;;6.13;;
64875;SDS011;51369;49.862;9.908;2023-10-08T11:36:22;11.38;;;5.72;;
64875;SDS011;51369;49.862;9.908;2023-10-08T11:38:55;16.83;;;6.25;;
64875;SDS011;51369;49.862;9.908;2023-10-08T11:41:26;16.23;;;6.07;;
64875;SDS011;51369;49.862;9.908;2023-10-08T11:43:54;16.48;;;5.63;;
64875;SDS011;51369;49.862;9.908;2023-10-08T11:46:31;16.85;;;5.38;;
64875;SDS011;51369;49.862;9.908;2023-10-08T11:49:06;17.73;;;6.90;;
64875;SDS011;51369;49.862;9.908;2023-10-08T11:51:32;12.93;;;6.25;;
64875;SDS011;51369;49.862;9.908;2023-10-08T11:53:59;19.30;;;6.05;;
64875;SDS011;51369;49.862;9.908;2023-10-08T11:56:30;18.35;;;5.55;;
64875;SDS011;51369;49.862;9.908;2023-10-08T11:58:58;14.18;;;5.95;;
64875;SDS011;51369;49.862;9.908;2023-10-08T12:01:30;14.55;;;6.20;;
64875;SDS011;51369;49.862;9.908;2023-10-08T12:04:00;15.48;;;7.43;;
64875;SDS011;51369;49.862;9.908;2023-10-08T12:06:25;17.65;;;6.38;;
64875;SDS011;51369;49.862;9.908;2023-10-08T12:08:54;17.02;;;6.50;;
64875;SDS011;51369;49.862;9.908;2023-10-08T12:11:23;13.40;;;5.60;;
64875;SDS011;51369;49.862;9.908;2023-10-08T12:13:56;12.45;;;6.32;;
64875;SDS011;51369;49.862;9.908;2023-10-08T12:16:24;18.05;;;7.35;;
64875;SDS011;51369;49.862;9.908;2023-10-08T12:18:54;12.52;;;5.95;;
64875;SDS011;51369;49.862;9.908;2023-10-08T12:21:40;15.23;;;6.10;;
64875;SDS011;51369;49.862;9.908;2023-10-08T12:24:06;13.20;;;5.97;;
64875;SDS011;51369;49.862;9.908;2023-10-08T12:26:33;15.00;;;6.07;;
64875;SDS011;51369;49.862;9.908;2023-10-08T12:28:59;12.68;;;5.90;;
64875;SDS011;51369;49.862;9.908;2023-10-08T12:31:25;13.60;;;6.47;;
64875;SDS011;51369;49.862;9.908;2023-10-08T12:33:54;13.65;;;6.28;;
64875;SDS011;51369;49.862;9.908;2023-10-08T12:36:25;12.75;;;6.40;;
64875;SDS011;51369;49.862;9.908;2023-10-08T12:38:52;12.65;;;6.47;;
64875;SDS011;51369;49.862;9.908;2023-10-08T12:41:22;14.27;;;6.45;;
64875;SDS011;51369;49.862;9.908;2023-10-08T12:43:50;20.25;;;7.20;;
64875;SDS011;51369;49.862;9.908;2023-10-08T12:46:19;14.18;;;6.70;;
64875;SDS011;51369;49.862;9.908;2023-10-08T12:48:56;13.60;;;6.63;;
64875;SDS011;51369;49.862;9.908;2023-10-08T12:51:21;13.52;;;6.55;;
64875;SDS011;51369;49.862;9.908;2023-10-08T12:53:49;15.15;;;6.57;;
64875;SDS011;51369;49.862;9.908;2023-10-08T12:56:29;13.13;;;6.38;;
64875;SDS011;51369;49.862;9.908;2023-10-08T13:01:30;12.68;;;5.95;;
64875;SDS011;51369;49.862;9.908;2023-10-08T13:03:55;15.57;;;6.32;;
64875;SDS011;51369;49.862;9.908;2023-10-08T13:06:32;15.90;;;6.95;;
64875;SDS011;51369;49.862;9.908;2023-10-08T13:08:59;16.20;;;6.18;;
64875;SDS011;51369;49.862;9.908;2023-10-08T13:11:26;16.30;;;6.40;;
64875;SDS011;51369;49.862;9.908;2023-10-08T13:13:55;16.30;;;6.38;;
64875;SDS011;51369;49.862;9.908;2023-10-08T13:16:22;13.15;;;7.28;;
64875;SDS011;51369;49.862;9.908;2023-10-08T13:18:49;13.63;;;6.78;;
64875;SDS011;51369;49.862;9.908;2023-10-08T13:21:15;13.57;;;6.35;;
64875;SDS011;51369;49.862;9.908;2023-10-08T13:23:41;18.15;;;6.97;;
64875;SDS011;51369;49.862;9.908;2023-10-08T13:26:07;16.17;;;6.30;;
64875;SDS011;51369;49.862;9.908;2023-10-08T13:28:33;13.23;;;6.68;;
64875;SDS011;51369;49.862;9.908;2023-10-08T13:30:59;13.00;;;6.45;;
64875;SDS011;51369;49.862;9.908;2023-10-08T13:33:26;16.70;;;7.97;;
64875;SDS011;51369;49.862;9.908;2023-10-08T13:35:51;12.52;;;6.88;;
64875;SDS011;51369;49.862;9.908;2023-10-08T13:38:17;17.75;;;7.30;;
64875;SDS011;51369;49.862;9.908;2023-10-08T13:40:45;18.48;;;6.40;;
64875;SDS011;51369;49.862;9.908;2023-10-08T13:43:30;13.48;;;6.85;;
64875;SDS011;51369;49.862;9.908;2023-10-08T13:46:04;15.35;;;6.93;;
64875;SDS011;51369;49.862;9.908;2023-10-08T13:48:32;15.95;;;7.28;;
64875;SDS011;51369;49.862;9.908;2023-10-08T13:51:02;19.30;;;8.05;;
64875;SDS011;51369;49.862;9.908;2023-10-08T13:53:29;16.00;;;7.10;;
64875;SDS011;51369;49.862;9.908;2023-10-08T13:55:56;14.00;;;7.30;;
64875;SDS011;51369;49.862;9.908;2023-10-08T13:58:29;18.98;;;7.32;;
64875;SDS011;51369;49.862;9.908;2023-10-08T14:00:58;17.48;;;7.65;;
64875;SDS011;51369;49.862;9.908;2023-10-08T14:03:28;17.13;;;7.75;;
64875;SDS011;51369;49.862;9.908;2023-10-08T14:05:57;20.02;;;7.22;;
64875;SDS011;51369;49.862;9.908;2023-10-08T14:08:27;18.98;;;7.43;;
64875;SDS011;51369;49.862;9.908;2023-10-08T14:10:54;11.95;;;7.13;;
64875;SDS011;51369;49.862;9.908;2023-10-08T14:13:25;17.77;;;7.80;;
64875;SDS011;51369;49.862;9.908;2023-10-08T14:15:52;19.67;;;7.68;;
64875;SDS011;51369;49.862;9.908;2023-10-08T14:18:22;16.85;;;7.28;;
64875;SDS011;51369;49.862;9.908;2023-10-08T14:20:53;15.68;;;6.93;;
64875;SDS011;51369;49.862;9.908;2023-10-08T14:23:22;16.10;;;6.05;;
64875;SDS011;51369;49.862;9.908;2023-10-08T14:25:49;14.00;;;5.38;;
64875;SDS011;51369;49.862;9.908;2023-10-08T14:28:17;10.18;;;5.03;;
64875;SDS011;51369;49.862;9.908;2023-10-08T14:31:05;9.32;;;4.28;;
64875;SDS011;51369;49.862;9.908;2023-10-08T14:33:34;11.30;;;4.63;;
64875;SDS011;51369;49.862;9.908;2023-10-08T14:36:10;16.52;;;4.10;;
64875;SDS011;51369;49.862;9.908;2023-10-08T14:38:54;8.50;;;3.55;;
64875;SDS011;51369;49.862;9.908;2023-10-08T14:41:39;10.52;;;4.47;;
64875;SDS011;51369;49.862;9.908;2023-10-08T14:44:23;8.45;;;3.70;;
64875;SDS011;51369;49.862;9.908;2023-10-08T14:46:51;15.40;;;4.00;;
64875;SDS011;51369;49.862;9.908;2023-10-08T14:49:17;8.82;;;4.03;;
64875;SDS011;51369;49.862;9.908;2023-10-08T14:51:42;12.05;;;4.53;;
64875;SDS011;51369;49.862;9.908;2023-10-08T14:54:08;10.60;;;4.10;;
64875;SDS011;51369;49.862;9.908;2023-10-08T14:56:37;12.02;;;4.35;;
64875;SDS011;51369;49.862;9.908;2023-10-08T14:59:03;8.95;;;3.83;;
64875;SDS011;51369;49.862;9.908;2023-10-08T15:01:29;15.90;;;4.00;;
64875;SDS011;51369;49.862;9.908;2023-10-08T15:03:58;12.02;;;5.28;;
64875;SDS011;51369;49.862;9.908;2023-10-08T15:06:25;8.82;;;4.20;;
64875;SDS011;51369;49.862;9.908;2023-10-08T15:08:51;10.43;;;3.90;;
64875;SDS011;51369;49.862;9.908;2023-10-08T15:11:17;12.60;;;3.88;;
64875;SDS011;51369;49.862;9.908;2023-10-08T15:13:43;6.47;;;3.63;;
64875;SDS011;51369;49.862;9.908;2023-10-08T15:16:11;7.47;;;3.80;;
64875;SDS011;51369;49.862;9.908;2023-10-08T15:18:38;8.13;;;4.05;;
64875;SDS011;51369;49.862;9.908;2023-10-08T15:21:07;10.02;;;3.88;;
64875;SDS011;51369;49.862;9.908;2023-10-08T15:23:34;7.38;;;3.47;;
64875;SDS011;51369;49.862;9.908;2023-10-08T15:26:00;10.63;;;4.10;;
64875;SDS011;51369;49.862;9.908;2023-10-08T15:28:26;6.88;;;3.47;;
64875;SDS011;51369;49.862;9.908;2023-10-08T15:30:51;7.30;;;3.90;;
64875;SDS011;51369;49.862;9.908;2023-10-08T15:33:17;10.30;;;3.33;;
64875;SDS011;51369;49.862;9.908;2023-10-08T15:35:43;5.93;;;3.58;;
64875;SDS011;51369;49.862;9.908;2023-10-08T15:38:08;6.93;;;4.15;;
64875;SDS011;51369;49.862;9.908;2023-10-08T15:40:33;14.55;;;5.13;;